Time;durP1;ratioP1;P1;durP2;ratioP2;P2;SDS_P1;SDS_P2;PMS_P1;PMS_P2;Temp;Humidity;BMP_temperature;BMP_pressure;BME280_temperature;BME280_humidity;BME280_pressure;Samples;Min_cycle;Max_cycle;Signal;HPM_P1;HPM_P2
2023/09/14 00:01:08;;;;;;;0.40;0.30;;;9.10;99.90;;;;;;5051294;28;20041;-65
2023/09/14 00:03:34;;;;;;;2.15;0.85;;;9.10;99.90;;;;;;5048567;28;20052;-65
2023/09/14 00:06:00;;;;;;;0.57;0.32;;;9.10;99.90;;;;;;5031732;28;20037;-65
2023/09/14 00:08:30;;;;;;;1.30;0.47;;;9.10;99.90;;;;;;5031550;28;20079;-65
2023/09/14 00:10:58;;;;;;;6.05;0.73;;;9.10;99.90;;;;;;5030760;28;20053;-65
2023/09/14 00:13:24;;;;;;;0.50;0.43;;;9.00;99.90;;;;;;5031038;28;20048;-65
2023/09/14 00:15:51;;;;;;;0.65;0.30;;;9.00;99.90;;;;;;5049262;28;20044;-65
2023/09/14 00:18:17;;;;;;;0.82;0.60;;;9.00;99.90;;;;;;5013891;28;20052;-65
2023/09/14 00:20:42;;;;;;;1.23;0.40;;;9.00;99.90;;;;;;5031098;28;20115;-65
2023/09/14 00:23:08;;;;;;;8.27;0.88;;;9.00;99.90;;;;;;5030950;28;20549;-65
2023/09/14 00:25:34;;;;;;;4.97;0.30;;;9.00;99.90;;;;;;5031080;28;20041;-65
2023/09/14 00:28:00;;;;;;;0.65;0.35;;;9.00;99.90;;;;;;5031195;28;20543;-65
2023/09/14 00:30:26;;;;;;;0.40;0.40;;;9.00;99.90;;;;;;5030745;28;20111;-65
2023/09/14 00:32:52;;;;;;;1.25;0.60;;;8.90;99.90;;;;;;5031175;28;20107;-65
2023/09/14 00:35:19;;;;;;;0.57;0.20;;;8.90;99.90;;;;;;5034723;28;20037;-65
2023/09/14 00:37:45;;;;;;;0.60;0.32;;;9.00;99.90;;;;;;5008296;28;20524;-65
2023/09/14 00:40:13;;;;;;;1.33;0.40;;;8.90;99.90;;;;;;5014972;28;20516;-66
2023/09/14 00:42:41;;;;;;;0.77;0.30;;;8.90;99.90;;;;;;5024629;28;20088;-65
2023/09/14 00:45:12;;;;;;;0.75;0.30;;;8.90;99.90;;;;;;5051408;28;20077;-65
2023/09/14 00:47:49;;;;;;;1.20;0.40;;;8.90;99.90;;;;;;5052924;28;20041;-65
2023/09/14 00:50:17;;;;;;;0.80;0.55;;;8.90;99.90;;;;;;5034616;28;20129;-65
2023/09/14 00:52:57;;;;;;;1.63;0.75;;;8.90;99.90;;;;;;5051632;28;20404;-65
2023/09/14 00:55:25;;;;;;;0.52;0.40;;;8.90;99.90;;;;;;5035093;28;20095;-65
2023/09/14 00:57:52;;;;;;;1.55;0.60;;;8.90;99.90;;;;;;5034803;28;20048;-65
2023/09/14 01:00:18;;;;;;;2.33;0.95;;;8.90;99.90;;;;;;5047221;28;20516;-65
2023/09/14 01:02:44;;;;;;;1.17;0.70;;;8.90;99.90;;;;;;5037768;28;20687;-65
2023/09/14 01:05:14;;;;;;;0.28;0.25;;;8.80;99.90;;;;;;5037717;28;20488;-65
2023/09/14 01:07:40;;;;;;;;;;;8.70;99.90;;;;;;5054588;28;20518;-65
2023/09/14 01:10:09;;;;;;;0.30;0.30;;;8.60;99.90;;;;;;5072178;28;19920;-65
2023/09/14 01:12:35;;;;;;;0.50;0.30;;;8.50;99.90;;;;;;5043070;28;20044;-65
2023/09/14 01:15:19;;;;;;;1.45;0.75;;;8.40;99.90;;;;;;5034612;28;20039;-65
2023/09/14 01:18:11;;;;;;;1.38;0.77;;;8.40;99.90;;;;;;5014511;28;20049;-65
2023/09/14 01:21:07;;;;;;;1.55;0.47;;;8.40;99.90;;;;;;5031704;28;20073;-65
2023/09/14 01:24:01;;;;;;;2.20;1.02;;;8.40;99.90;;;;;;5022107;28;20033;-65
2023/09/14 01:26:28;;;;;;;1.45;0.88;;;8.40;99.90;;;;;;5033603;28;20049;-65
2023/09/14 01:28:54;;;;;;;1.70;0.93;;;8.40;99.90;;;;;;5033807;28;20037;-65
2023/09/14 01:31:20;;;;;;;3.60;1.13;;;8.40;99.90;;;;;;5051388;28;20131;-65
2023/09/14 01:33:48;;;;;;;1.85;0.70;;;8.40;99.90;;;;;;5029684;28;20046;-65
2023/09/14 01:36:36;;;;;;;2.22;1.02;;;8.40;99.90;;;;;;5031856;28;20037;-65
2023/09/14 01:39:04;;;;;;;2.33;0.50;;;8.40;99.90;;;;;;5007152;28;20393;-65
2023/09/14 01:41:32;;;;;;;3.40;1.13;;;8.50;99.90;;;;;;5013659;28;20041;-65
2023/09/14 01:43:59;;;;;;;3.45;0.85;;;8.50;99.90;;;;;;5013743;28;20047;-65
2023/09/14 01:46:26;;;;;;;3.38;1.05;;;8.50;99.90;;;;;;5040696;28;20705;-65
2023/09/14 01:48:52;;;;;;;2.03;0.70;;;8.60;99.90;;;;;;5033416;28;20119;-65
2023/09/14 01:51:18;;;;;;;4.55;1.48;;;8.50;99.90;;;;;;5033740;28;20124;-65
2023/09/14 01:53:44;;;;;;;1.45;0.65;;;8.50;99.90;;;;;;5033221;28;20554;-65
2023/09/14 01:56:09;;;;;;;0.65;0.47;;;8.50;99.90;;;;;;5033244;28;20095;-65
2023/09/14 01:58:35;;;;;;;2.83;0.90;;;8.50;99.90;;;;;;5051142;28;20037;-65
2023/09/14 02:01:01;;;;;;;1.25;0.80;;;8.50;99.90;;;;;;5046581;28;20047;-65
2023/09/14 02:03:27;;;;;;;2.70;1.15;;;8.40;99.90;;;;;;5049486;28;20556;-65
2023/09/14 02:06:02;;;;;;;1.25;0.65;;;8.40;99.90;;;;;;5033357;28;20053;-65
2023/09/14 02:08:30;;;;;;;12.57;0.90;;;8.40;99.90;;;;;;5033078;28;20041;-65
2023/09/14 02:10:56;;;;;;;2.47;1.30;;;8.40;99.90;;;;;;5071101;28;20041;-65
2023/09/14 02:13:22;;;;;;;1.17;0.80;;;8.40;99.90;;;;;;5036167;28;20103;-65
2023/09/14 02:15:48;;;;;;;2.97;0.68;;;8.50;99.90;;;;;;5029425;28;20049;-65
2023/09/14 02:18:14;;;;;;;1.42;1.00;;;8.40;99.90;;;;;;5031338;28;20503;-65
2023/09/14 02:20:40;;;;;;;1.88;0.70;;;8.50;99.90;;;;;;5028762;28;20132;-65
2023/09/14 02:23:07;;;;;;;1.23;0.50;;;8.50;99.90;;;;;;5032587;28;20052;-65
2023/09/14 02:25:33;;;;;;;1.67;0.80;;;8.50;99.90;;;;;;5049540;28;20037;-65
2023/09/14 02:27:59;;;;;;;0.90;0.65;;;8.50;99.90;;;;;;5032603;28;20036;-65
2023/09/14 02:30:28;;;;;;;9.48;0.93;;;8.50;99.90;;;;;;5031732;28;20132;-65
2023/09/14 02:32:54;;;;;;;3.08;0.65;;;8.50;99.90;;;;;;5032938;28;20045;-65
2023/09/14 02:35:19;;;;;;;1.38;0.68;;;8.50;99.90;;;;;;5032770;28;20044;-65
2023/09/14 02:37:46;;;;;;;0.57;0.30;;;8.40;99.90;;;;;;5050151;28;20450;-65
2023/09/14 02:40:12;;;;;;;1.08;0.60;;;8.40;99.90;;;;;;5032603;28;20135;-65
2023/09/14 02:42:38;;;;;;;1.23;0.57;;;8.30;99.90;;;;;;5032449;28;20107;-65
2023/09/14 02:45:05;;;;;;;1.75;0.60;;;8.30;99.90;;;;;;5032070;28;20107;-65
2023/09/14 02:47:31;;;;;;;1.85;0.98;;;8.30;99.90;;;;;;5032853;28;20531;-65
2023/09/14 02:50:00;;;;;;;2.20;0.60;;;8.20;99.90;;;;;;5050378;28;20052;-65
2023/09/14 02:52:26;;;;;;;0.52;0.40;;;8.10;99.90;;;;;;5031885;28;20111;-65
2023/09/14 02:54:52;;;;;;;0.95;0.40;;;8.10;99.90;;;;;;5032047;28;20045;-66
2023/09/14 02:57:18;;;;;;;1.50;0.70;;;8.10;99.90;;;;;;5014997;28;20111;-66
2023/09/14 02:59:44;;;;;;;0.52;0.40;;;8.10;99.90;;;;;;5041622;28;20392;-66
2023/09/14 03:02:10;;;;;;;2.90;0.55;;;8.10;99.90;;;;;;5070067;28;20037;-66
2023/09/14 03:04:36;;;;;;;0.77;0.40;;;8.10;99.90;;;;;;5051683;28;20170;-66
2023/09/14 03:07:02;;;;;;;0.45;0.25;;;8.20;99.90;;;;;;5052454;28;20039;-66
2023/09/14 03:09:28;;;;;;;0.65;0.30;;;8.10;99.90;;;;;;5019723;28;20045;-67
2023/09/14 03:11:55;;;;;;;1.48;0.55;;;8.10;99.90;;;;;;5011968;28;20041;-67
2023/09/14 03:14:21;;;;;;;1.05;0.38;;;8.00;99.90;;;;;;5012415;28;20508;-67
2023/09/14 03:16:49;;;;;;;1.02;0.22;;;8.00;99.90;;;;;;5026374;28;20045;-66
2023/09/14 03:19:15;;;;;;;0.60;0.47;;;8.10;99.90;;;;;;5049287;28;20507;-66
2023/09/14 03:21:41;;;;;;;1.20;0.40;;;8.10;99.90;;;;;;5031995;28;20048;-66
2023/09/14 03:24:07;;;;;;;1.35;0.52;;;8.00;99.90;;;;;;5031757;28;20155;-66
2023/09/14 03:26:33;;;;;;;1.52;0.50;;;8.00;99.90;;;;;;5031481;28;20056;-65
2023/09/14 03:28:59;;;;;;;2.30;0.50;;;8.00;99.90;;;;;;5049771;28;20044;-67
2023/09/14 03:31:26;;;;;;;0.35;0.30;;;8.10;99.90;;;;;;5014980;28;20053;-67
2023/09/14 03:33:52;;;;;;;0.77;0.35;;;8.10;99.90;;;;;;5031612;28;20036;-66
2023/09/14 03:36:19;;;;;;;0.65;0.40;;;8.10;99.90;;;;;;5032095;28;20393;-66
2023/09/14 03:38:46;;;;;;;1.10;0.38;;;8.10;99.90;;;;;;5031579;28;20041;-66
2023/09/14 03:41:12;;;;;;;1.80;0.40;;;8.10;99.90;;;;;;5049199;28;20040;-66
2023/09/14 03:43:40;;;;;;;0.80;0.30;;;8.10;99.90;;;;;;5031900;28;20040;-66
2023/09/14 03:46:06;;;;;;;1.65;0.38;;;8.10;99.90;;;;;;5031461;28;20037;-66
2023/09/14 03:48:32;;;;;;;0.75;0.40;;;8.10;99.90;;;;;;5014822;28;20044;-66
2023/09/14 03:50:59;;;;;;;1.20;0.50;;;8.20;99.90;;;;;;5031842;28;20114;-66
2023/09/14 03:53:26;;;;;;;1.60;0.32;;;8.20;99.90;;;;;;5030961;28;20053;-66
2023/09/14 03:55:53;;;;;;;0.85;0.60;;;8.10;99.90;;;;;;5031661;28;20118;-66
2023/09/14 03:58:19;;;;;;;0.32;0.25;;;8.10;99.90;;;;;;5031671;28;20048;-66
2023/09/14 04:00:45;;;;;;;0.82;0.30;;;8.10;99.90;;;;;;5032020;28;20051;-66
2023/09/14 04:03:11;;;;;;;0.40;0.20;;;8.10;99.90;;;;;;5069528;28;20087;-66
2023/09/14 04:05:37;;;;;;;1.05;0.63;;;8.10;99.90;;;;;;5020838;28;20045;-66
2023/09/14 04:08:03;;;;;;;1.83;0.40;;;8.10;99.90;;;;;;5012058;28;20095;-67
2023/09/14 04:10:29;;;;;;;1.02;0.52;;;8.10;99.90;;;;;;5016291;28;20033;-66
2023/09/14 04:13:31;;;;;;;0.77;0.52;;;8.10;99.90;;;;;;5016052;28;20430;-66
2023/09/14 04:15:58;;;;;;;1.02;0.47;;;8.10;99.90;;;;;;5022446;28;20052;-66
2023/09/14 04:18:24;;;;;;;2.67;0.57;;;8.10;99.90;;;;;;5035375;28;20107;-66
2023/09/14 04:20:51;;;;;;;1.13;0.52;;;8.10;99.90;;;;;;5053028;28;20052;-66
2023/09/14 04:23:17;;;;;;;1.40;0.47;;;8.00;99.90;;;;;;5034837;28;20037;-66
2023/09/14 04:25:46;;;;;;;1.55;0.47;;;8.00;99.90;;;;;;5035154;28;20469;-66
2023/09/14 04:28:13;;;;;;;2.00;0.70;;;8.00;99.90;;;;;;5035381;28;20128;-66
2023/09/14 04:31:01;;;;;;;1.27;0.30;;;8.00;99.90;;;;;;5051237;28;20049;-66
2023/09/14 04:33:29;;;;;;;0.75;0.28;;;8.00;99.90;;;;;;5034941;28;20052;-67
2023/09/14 04:35:58;;;;;;;0.40;0.40;;;8.00;99.90;;;;;;5034336;28;20090;-67
2023/09/14 04:38:24;;;;;;;2.42;0.60;;;8.00;99.90;;;;;;5034974;28;20057;-66
2023/09/14 04:40:50;;;;;;;0.52;0.30;;;8.00;99.90;;;;;;5034759;28;20041;-67
2023/09/14 04:43:15;;;;;;;0.32;0.30;;;8.00;99.90;;;;;;5034166;28;20055;-66
2023/09/14 04:45:41;;;;;;;1.42;0.80;;;8.00;99.90;;;;;;5034366;28;20043;-66
2023/09/14 04:48:08;;;;;;;1.10;0.68;;;8.00;99.90;;;;;;5034593;28;20040;-67
2023/09/14 04:50:34;;;;;;;1.40;0.80;;;8.00;99.90;;;;;;5034020;28;20049;-67
2023/09/14 04:53:00;;;;;;;1.75;0.70;;;7.90;99.90;;;;;;5034395;28;20041;-67
2023/09/14 04:55:25;;;;;;;0.52;0.30;;;7.90;99.90;;;;;;5034828;28;20123;-66
2023/09/14 04:57:52;;;;;;;1.08;0.45;;;7.90;99.90;;;;;;5034275;28;20502;-66
2023/09/14 05:00:18;;;;;;;0.50;0.35;;;7.80;99.90;;;;;;5032990;28;20044;-66
2023/09/14 05:02:43;;;;;;;1.83;0.82;;;7.80;99.90;;;;;;5014510;28;20520;-66
2023/09/14 05:05:10;;;;;;;0.20;0.20;;;7.80;99.90;;;;;;5014297;28;20041;-66
2023/09/14 05:07:35;;;;;;;0.70;0.43;;;7.80;99.90;;;;;;5014621;28;20041;-67
2023/09/14 05:10:02;;;;;;;0.75;0.30;;;7.80;99.90;;;;;;5014580;28;20048;-67
2023/09/14 05:12:28;;;;;;;0.93;0.47;;;7.80;99.90;;;;;;5030697;28;20044;-66
2023/09/14 05:14:54;;;;;;;0.55;0.40;;;7.80;99.90;;;;;;5032077;28;20564;-67
2023/09/14 05:17:20;;;;;;;0.90;0.50;;;7.80;99.90;;;;;;5049360;28;20489;-66
2023/09/14 05:19:46;;;;;;;1.25;0.38;;;7.80;99.90;;;;;;5033296;28;20665;-66
2023/09/14 05:22:12;;;;;;;0.65;0.40;;;7.80;99.90;;;;;;5034034;28;20049;-66
2023/09/14 05:24:38;;;;;;;1.75;0.57;;;7.80;99.90;;;;;;5033347;28;20045;-67
2023/09/14 05:27:04;;;;;;;7.72;0.47;;;7.80;99.90;;;;;;5017460;28;20251;-67
2023/09/14 05:29:30;;;;;;;0.75;0.50;;;7.80;99.90;;;;;;5034022;28;20107;-67
2023/09/14 05:31:56;;;;;;;1.80;0.43;;;7.80;99.90;;;;;;5016997;28;20854;-67
2023/09/14 05:34:22;;;;;;;1.23;0.25;;;7.80;99.90;;;;;;5051884;28;20373;-67
2023/09/14 05:36:49;;;;;;;0.65;0.30;;;7.80;99.90;;;;;;5034077;28;20049;-67
2023/09/14 05:39:15;;;;;;;0.93;0.40;;;7.90;99.90;;;;;;5051085;28;20052;-67
2023/09/14 05:41:41;;;;;;;0.85;0.25;;;7.90;99.90;;;;;;5033669;28;20045;-67
2023/09/14 05:44:09;;;;;;;1.02;0.50;;;8.00;99.90;;;;;;5051738;28;20124;-66
2023/09/14 05:46:35;;;;;;;1.27;0.50;;;8.00;99.90;;;;;;5033320;28;20045;-66
2023/09/14 05:49:02;;;;;;;0.90;0.30;;;8.10;99.90;;;;;;5033456;28;20547;-66
2023/09/14 05:51:28;;;;;;;1.90;0.70;;;8.10;99.90;;;;;;5033649;28;20037;-67
2023/09/14 05:53:55;;;;;;;1.05;0.50;;;8.10;99.90;;;;;;5050722;28;20251;-67
2023/09/14 05:56:20;;;;;;;1.73;0.90;;;8.20;99.90;;;;;;5033136;28;20044;-67
2023/09/14 05:58:47;;;;;;;1.20;0.60;;;8.20;99.90;;;;;;5016957;28;20401;-67
2023/09/14 06:01:14;;;;;;;3.08;0.47;;;8.20;99.90;;;;;;5052957;28;20138;-67
2023/09/14 06:03:40;;;;;;;2.13;0.65;;;8.30;99.90;;;;;;5053104;28;20064;-67
2023/09/14 06:06:06;;;;;;;0.88;0.70;;;8.40;99.90;;;;;;5053311;28;20076;-67
2023/09/14 06:08:32;;;;;;;0.90;0.43;;;8.50;99.90;;;;;;5052972;28;20079;-67
2023/09/14 06:10:58;;;;;;;0.68;0.50;;;8.60;99.90;;;;;;5053187;28;20427;-68
2023/09/14 06:13:24;;;;;;;1.85;0.60;;;8.70;99.90;;;;;;5035608;28;20033;-68
2023/09/14 06:15:50;;;;;;;2.15;0.40;;;8.80;99.90;;;;;;5033294;28;20524;-68
2023/09/14 06:18:16;;;;;;;2.00;0.77;;;9.00;99.90;;;;;;5050838;28;20081;-67
2023/09/14 06:20:41;;;;;;;3.30;0.60;;;9.20;99.90;;;;;;5032495;28;20485;-67
2023/09/14 06:23:07;;;;;;;1.20;0.63;;;9.50;99.90;;;;;;5033114;28;20057;-67
2023/09/14 06:25:33;;;;;;;0.63;0.52;;;9.70;99.90;;;;;;5050801;28;20432;-68
2023/09/14 06:27:59;;;;;;;2.42;0.60;;;10.10;99.90;;;;;;5032445;28;20041;-67
2023/09/14 06:30:25;;;;;;;1.30;0.57;;;10.30;99.90;;;;;;5029687;28;20084;-67
2023/09/14 06:32:51;;;;;;;1.15;0.52;;;10.60;99.90;;;;;;5012008;28;20212;-68
2023/09/14 06:35:17;;;;;;;3.92;0.60;;;10.80;99.90;;;;;;5012452;28;20082;-67
2023/09/14 06:37:43;;;;;;;2.08;0.70;;;11.00;99.90;;;;;;5012969;28;20034;-68
2023/09/14 06:40:09;;;;;;;1.65;0.40;;;11.20;99.90;;;;;;5012962;28;20066;-67
2023/09/14 06:42:36;;;;;;;4.07;0.95;;;11.30;99.90;;;;;;5012212;28;20490;-67
2023/09/14 06:45:02;;;;;;;2.33;0.60;;;11.30;99.90;;;;;;5012487;28;20073;-67
2023/09/14 06:47:28;;;;;;;10.07;0.85;;;11.30;99.90;;;;;;5012833;28;20049;-67
2023/09/14 06:49:53;;;;;;;0.77;0.30;;;11.40;99.90;;;;;;5012416;28;20056;-67
2023/09/14 06:52:19;;;;;;;13.63;0.82;;;11.40;99.90;;;;;;5028930;28;20029;-67
2023/09/14 06:54:46;;;;;;;3.08;0.93;;;11.50;99.90;;;;;;4994562;28;20046;-67
2023/09/14 06:57:13;;;;;;;0.82;0.40;;;11.50;99.90;;;;;;5010723;28;20053;-66
2023/09/14 06:59:39;;;;;;;1.55;0.40;;;11.60;99.90;;;;;;5021211;28;20116;-66
2023/09/14 07:02:05;;;;;;;0.75;0.40;;;11.60;99.90;;;;;;5032201;28;20132;-66
2023/09/14 07:04:33;;;;;;;0.57;0.35;;;11.70;99.90;;;;;;5030707;28;20049;-66
2023/09/14 07:07:00;;;;;;;1.70;0.40;;;11.80;99.90;;;;;;5012702;28;20045;-66
2023/09/14 07:09:28;;;;;;;3.92;0.77;;;11.80;99.90;;;;;;5028741;28;20053;-66
2023/09/14 07:11:54;;;;;;;6.18;0.70;;;11.90;99.90;;;;;;5012686;28;20055;-65
2023/09/14 07:14:20;;;;;;;1.13;0.32;;;12.00;99.90;;;;;;5012561;28;20066;-66
2023/09/14 07:16:46;;;;;;;3.25;0.85;;;12.20;99.90;;;;;;5011859;28;20037;-66
2023/09/14 07:19:13;;;;;;;1.35;0.50;;;12.30;99.90;;;;;;5011876;28;20478;-66
2023/09/14 07:21:39;;;;;;;2.33;1.33;;;12.40;99.90;;;;;;5029793;28;20041;-66
2023/09/14 07:24:08;;;;;;;1.20;0.50;;;12.50;99.90;;;;;;5011691;28;20088;-67
2023/09/14 07:26:35;;;;;;;1.67;0.77;;;12.60;99.90;;;;;;5012032;28;20069;-66
2023/09/14 07:29:01;;;;;;;2.13;0.80;;;12.80;99.90;;;;;;5012061;28;20065;-66
2023/09/14 07:31:28;;;;;;;1.58;0.50;;;12.90;99.90;;;;;;5023394;28;20160;-66
2023/09/14 07:33:54;;;;;;;2.25;0.73;;;13.00;99.90;;;;;;5032171;28;20044;-66
2023/09/14 07:36:19;;;;;;;1.35;0.80;;;13.10;99.90;;;;;;5031585;28;20523;-66
2023/09/14 07:38:45;;;;;;;2.25;0.75;;;13.20;99.90;;;;;;5031499;28;20057;-66
2023/09/14 07:41:11;;;;;;;1.73;0.90;;;13.40;99.90;;;;;;5032124;28;20041;-66
2023/09/14 07:43:37;;;;;;;2.72;0.50;;;13.50;99.90;;;;;;5031446;28;20405;-66
2023/09/14 07:46:03;;;;;;;3.47;0.88;;;13.70;99.90;;;;;;5015482;28;20041;-66
2023/09/14 07:48:29;;;;;;;0.95;0.75;;;13.80;99.90;;;;;;5032330;28;20493;-66
2023/09/14 07:50:56;;;;;;;2.55;0.88;;;13.90;99.90;;;;;;5032312;28;20393;-66
2023/09/14 07:53:21;;;;;;;1.80;0.93;;;14.00;99.90;;;;;;5035358;28;20343;-66
2023/09/14 07:55:52;;;;;;;1.38;0.50;;;14.20;99.90;;;;;;5032156;28;20059;-66
2023/09/14 07:58:21;;;;;;;2.38;0.57;;;14.30;99.90;;;;;;5049581;28;20045;-66
2023/09/14 08:00:48;;;;;;;2.63;0.70;;;14.50;99.90;;;;;;5049635;28;20056;-66
2023/09/14 08:03:14;;;;;;;3.20;0.98;;;14.70;99.90;;;;;;5052301;28;20147;-67
2023/09/14 08:05:41;;;;;;;1.83;0.70;;;15.00;99.90;;;;;;5051488;28;20036;-66
2023/09/14 08:08:08;;;;;;;3.10;0.60;;;15.50;99.90;;;;;;5051763;28;20045;-67
2023/09/14 08:10:33;;;;;;;1.83;1.02;;;16.10;99.90;;;;;;5052236;28;20037;-67
2023/09/14 08:13:00;;;;;;;1.63;0.80;;;16.70;99.90;;;;;;5037565;28;20512;-68
2023/09/14 08:15:27;;;;;;;3.25;0.90;;;17.30;99.90;;;;;;5031784;28;20084;-67
2023/09/14 08:17:53;;;;;;;2.05;0.30;;;17.80;99.90;;;;;;5014887;28;20099;-70
2023/09/14 08:20:18;;;;;;;1.83;0.60;;;18.20;99.90;;;;;;5033499;28;20041;-67
2023/09/14 08:22:44;;;;;;;0.73;0.52;;;18.60;99.90;;;;;;5015220;28;20048;-68
2023/09/14 08:25:11;;;;;;;0.70;0.50;;;19.00;99.90;;;;;;5031421;28;20048;-68
2023/09/14 08:27:40;;;;;;;3.00;0.63;;;19.40;99.90;;;;;;5031561;28;20120;-67
2023/09/14 08:30:10;;;;;;;3.40;1.00;;;19.70;99.90;;;;;;5011488;28;20087;-67
2023/09/14 08:32:36;;;;;;;1.33;0.40;;;20.00;99.90;;;;;;5011547;28;20046;-68
2023/09/14 08:35:23;;;;;;;1.42;0.50;;;20.30;99.90;;;;;;5029874;28;20083;-69
2023/09/14 08:37:51;;;;;;;2.63;0.50;;;20.70;99.90;;;;;;5031431;28;20508;-70
2023/09/14 08:40:18;;;;;;;5.22;0.90;;;20.80;99.90;;;;;;5021548;28;20045;-68
2023/09/14 08:42:53;;;;;;;3.25;0.50;;;20.90;99.90;;;;;;5011524;28;20053;-68
2023/09/14 08:45:23;;;;;;;1.42;0.43;;;21.00;99.90;;;;;;5031089;28;20119;-68
2023/09/14 08:47:50;;;;;;;1.13;0.45;;;21.20;99.90;;;;;;5050146;28;20049;-70
2023/09/14 08:50:17;;;;;;;2.03;0.70;;;21.20;99.90;;;;;;5038345;28;20037;-70
2023/09/14 08:52:44;;;;;;;0.95;0.57;;;21.30;99.90;;;;;;5030540;28;20037;-68
2023/09/14 08:55:11;;;;;;;0.73;0.40;;;21.30;99.90;;;;;;5014948;28;20033;-63
2023/09/14 08:57:43;;;;;;;0.73;0.40;;;21.50;99.90;;;;;;5034666;28;20069;-71
2023/09/14 09:00:15;;;;;;;2.78;0.55;;;21.60;99.90;;;;;;5047552;28;20032;-67
2023/09/14 09:02:45;;;;;;;1.55;0.50;;;21.90;99.90;;;;;;5054242;28;20095;-67
2023/09/14 09:05:12;;;;;;;1.65;0.40;;;22.20;99.90;;;;;;5054474;28;20048;-71
2023/09/14 09:07:40;;;;;;;3.78;0.40;;;22.10;99.90;;;;;;5037325;28;20052;-69
2023/09/14 09:10:10;;;;;;;1.00;0.40;;;22.00;99.90;;;;;;5034115;28;20029;-69
2023/09/14 09:12:36;;;;;;;1.85;0.57;;;22.00;99.90;;;;;;5034352;28;20071;-71
2023/09/14 09:15:03;;;;;;;0.60;0.45;;;22.00;99.90;;;;;;5034438;28;20060;-68
2023/09/14 09:17:38;;;;;;;2.25;0.80;;;22.10;99.90;;;;;;5033781;28;20081;-68
2023/09/14 09:20:11;;;;;;;0.95;0.30;;;22.20;99.90;;;;;;5034330;28;20385;-69
2023/09/14 09:22:40;;;;;;;4.00;0.47;;;22.40;99.90;;;;;;5033548;28;20036;-68
2023/09/14 09:25:06;;;;;;;0.80;0.32;;;22.60;99.90;;;;;;5033924;28;20493;-69
2023/09/14 09:27:32;;;;;;;3.20;0.45;;;22.90;99.90;;;;;;5030525;28;20041;-69
2023/09/14 09:29:59;;;;;;;2.17;0.85;;;23.10;99.90;;;;;;5051339;28;20779;-68
2023/09/14 09:32:25;;;;;;;2.58;0.40;;;23.20;99.90;;;;;;5051687;28;20378;-69
2023/09/14 09:34:51;;;;;;;2.45;0.40;;;23.20;99.90;;;;;;5050750;28;20063;-68
2023/09/14 09:37:17;;;;;;;1.55;0.50;;;23.30;99.90;;;;;;5033680;28;20128;-70
2023/09/14 09:39:44;;;;;;;1.10;0.30;;;23.40;99.90;;;;;;5033926;28;20036;-70
2023/09/14 09:42:13;;;;;;;1.08;0.50;;;23.50;99.90;;;;;;5033643;28;20557;-68
2023/09/14 09:44:39;;;;;;;1.52;0.60;;;23.60;99.90;;;;;;5016718;28;20041;-69
2023/09/14 09:47:09;;;;;;;2.63;0.80;;;23.60;99.90;;;;;;5050400;28;20045;-72
2023/09/14 09:49:34;;;;;;;1.27;0.40;;;23.70;99.90;;;;;;5033681;28;20187;-68
2023/09/14 09:52:00;;;;;;;1.77;0.30;;;23.70;99.20;;;;;;5033044;28;20087;-69
2023/09/14 09:54:27;;;;;;;1.50;0.60;;;23.60;99.80;;;;;;5033310;28;20060;-67
2023/09/14 09:56:53;;;;;;;3.75;0.82;;;23.80;98.70;;;;;;5033710;28;20049;-69
2023/09/14 09:59:19;;;;;;;1.77;0.70;;;23.80;98.80;;;;;;5038664;28;20479;-70
2023/09/14 10:01:47;;;;;;;1.77;0.40;;;23.90;99.30;;;;;;5053455;28;20102;-71
2023/09/14 10:04:15;;;;;;;0.95;0.35;;;24.10;99.70;;;;;;5052948;28;20055;-70
2023/09/14 10:06:43;;;;;;;1.33;0.30;;;24.20;98.90;;;;;;5052770;28;20049;-70
2023/09/14 10:09:11;;;;;;;1.35;0.43;;;24.30;96.40;;;;;;5039658;28;20068;-69
2023/09/14 10:11:41;;;;;;;1.85;0.50;;;24.30;97.50;;;;;;5032957;28;20040;-69
2023/09/14 10:14:13;;;;;;;1.23;0.40;;;24.60;97.50;;;;;;5033396;28;20045;-69
2023/09/14 10:16:43;;;;;;;2.50;0.65;;;24.50;95.90;;;;;;5033400;28;20095;-70
2023/09/14 10:19:10;;;;;;;0.70;0.40;;;24.20;94.60;;;;;;5033149;28;20052;-69
2023/09/14 10:21:37;;;;;;;1.83;0.52;;;24.20;95.80;;;;;;5033082;28;20080;-69
2023/09/14 10:24:06;;;;;;;0.90;0.40;;;24.30;96.20;;;;;;5013141;28;20049;-69
2023/09/14 10:26:43;;;;;;;0.55;0.25;;;24.50;95.40;;;;;;5013342;28;20049;-68
2023/09/14 10:29:09;;;;;;;0.73;0.40;;;24.80;96.30;;;;;;5032565;28;20392;-70
2023/09/14 10:31:36;;;;;;;2.33;0.45;;;25.30;96.10;;;;;;5032707;28;20059;-68
2023/09/14 10:34:03;;;;;;;1.85;0.32;;;25.40;93.50;;;;;;5032073;28;20080;-70
2023/09/14 10:36:30;;;;;;;1.50;0.82;;;25.40;93.30;;;;;;5016277;28;20044;-69
2023/09/14 10:38:59;;;;;;;1.67;0.40;;;25.10;92.80;;;;;;5036386;28;20048;-71
2023/09/14 10:41:25;;;;;;;0.93;0.30;;;24.90;93.00;;;;;;5070241;28;20048;-68
2023/09/14 10:43:52;;;;;;;0.70;0.30;;;24.90;92.60;;;;;;5070334;28;20060;-68
2023/09/14 10:46:24;;;;;;;0.98;0.55;;;24.90;92.90;;;;;;5051166;28;20051;-69
2023/09/14 10:48:50;;;;;;;3.40;0.68;;;25.10;93.50;;;;;;5034852;28;20068;-73
2023/09/14 10:51:17;;;;;;;2.33;0.50;;;24.80;92.40;;;;;;5032801;28;20124;-68
2023/09/14 10:53:43;;;;;;;3.90;0.50;;;23.70;92.60;;;;;;5031326;28;20037;-68
2023/09/14 10:56:20;;;;;;;2.42;0.47;;;23.00;93.30;;;;;;5032553;28;20595;-68
2023/09/14 10:58:50;;;;;;;1.90;0.60;;;22.80;94.90;;;;;;5033510;28;20044;-68
2023/09/14 11:01:24;;;;;;;1.35;0.57;;;23.10;95.10;;;;;;5052167;28;20048;-68
2023/09/14 11:04:13;;;;;;;1.08;0.32;;;23.50;95.20;;;;;;5052233;28;20052;-69
2023/09/14 11:06:46;;;;;;;1.00;0.35;;;23.60;93.50;;;;;;5052235;28;20040;-69
2023/09/14 11:09:14;;;;;;;3.78;1.17;;;23.50;92.80;;;;;;5038225;28;20481;-69
2023/09/14 11:11:48;;;;;;;2.42;0.77;;;23.40;93.00;;;;;;5050101;28;20045;-68
2023/09/14 11:14:15;;;;;;;2.75;0.60;;;23.40;92.80;;;;;;5031813;28;20128;-70
2023/09/14 11:16:50;;;;;;;2.30;0.43;;;23.60;92.90;;;;;;5032599;28;20040;-67
2023/09/14 11:19:37;;;;;;;1.52;0.47;;;24.00;90.80;;;;;;5020088;28;20065;-69
2023/09/14 11:22:04;;;;;;;1.13;0.45;;;23.90;90.90;;;;;;5028213;28;20051;-68
2023/09/14 11:24:34;;;;;;;1.58;0.60;;;23.20;91.20;;;;;;5012274;28;20493;-69
2023/09/14 11:27:00;;;;;;;0.93;0.40;;;22.40;91.40;;;;;;5012704;28;20046;-68
2023/09/14 11:29:27;;;;;;;1.67;0.30;;;21.70;92.20;;;;;;5067694;28;20511;-67
2023/09/14 11:32:03;;;;;;;2.20;0.43;;;21.30;93.40;;;;;;5070045;28;20079;-67
2023/09/14 11:34:31;;;;;;;2.85;0.55;;;21.30;94.20;;;;;;5052263;28;20051;-67
2023/09/14 11:37:01;;;;;;;1.95;0.43;;;21.20;94.10;;;;;;5052331;28;20052;-67
2023/09/14 11:39:28;;;;;;;1.02;0.50;;;21.30;94.20;;;;;;5036319;28;20036;-67
2023/09/14 11:42:00;;;;;;;1.10;0.50;;;21.40;94.60;;;;;;5035800;28;20460;-69
2023/09/14 11:44:31;;;;;;;3.65;0.75;;;21.70;94.60;;;;;;5031091;28;20120;-69
2023/09/14 11:47:04;;;;;;;1.63;0.60;;;22.10;93.80;;;;;;5032197;28;20040;-67
2023/09/14 11:49:33;;;;;;;1.63;0.40;;;22.30;92.80;;;;;;5031764;28;20473;-70
2023/09/14 11:52:02;;;;;;;2.70;0.50;;;21.90;91.80;;;;;;5031827;28;20045;-67
2023/09/14 11:54:31;;;;;;;0.30;0.20;;;21.40;92.10;;;;;;5031863;28;20119;-67
2023/09/14 11:57:04;;;;;;;1.40;0.30;;;21.20;93.80;;;;;;5031284;28;20052;-68
2023/09/14 11:59:31;;;;;;;1.30;0.60;;;21.40;93.80;;;;;;5031845;28;20045;-67
2023/09/14 12:01:58;;;;;;;4.85;1.13;;;21.70;93.40;;;;;;5049841;28;20052;-68
2023/09/14 12:04:27;;;;;;;3.17;0.70;;;21.90;93.40;;;;;;5031820;28;20049;-67
2023/09/14 12:06:53;;;;;;;1.33;0.47;;;22.10;93.90;;;;;;5032521;28;20049;-68
2023/09/14 12:09:39;;;;;;;3.38;0.75;;;22.40;94.00;;;;;;5032258;28;20359;-67
2023/09/14 12:12:06;;;;;;;2.65;0.77;;;22.30;93.30;;;;;;5031920;28;20045;-68
2023/09/14 12:14:45;;;;;;;2.03;0.60;;;22.30;93.20;;;;;;5028582;28;20059;-68
2023/09/14 12:17:24;;;;;;;4.72;1.05;;;22.50;93.00;;;;;;5025742;28;20095;-68
2023/09/14 12:19:56;;;;;;;2.92;0.82;;;22.70;92.30;;;;;;5051982;28;20040;-68
2023/09/14 12:22:24;;;;;;;2.38;0.55;;;22.60;92.60;;;;;;5051664;28;20056;-68
2023/09/14 12:24:51;;;;;;;5.93;0.73;;;22.40;92.50;;;;;;5069238;28;20055;-67
2023/09/14 12:27:18;;;;;;;1.88;0.63;;;22.10;92.60;;;;;;5051644;28;20040;-67
2023/09/14 12:29:45;;;;;;;1.42;0.45;;;22.10;92.80;;;;;;5053566;28;20044;-67
2023/09/14 12:32:12;;;;;;;1.75;0.50;;;22.20;92.50;;;;;;5054683;28;20123;-67
2023/09/14 12:34:39;;;;;;;1.63;0.70;;;22.40;92.00;;;;;;5055287;28;20049;-67
2023/09/14 12:37:06;;;;;;;2.78;0.80;;;22.50;91.70;;;;;;5055264;28;20135;-66
2023/09/14 12:39:32;;;;;;;1.85;0.47;;;22.50;92.50;;;;;;5039932;28;20072;-67
2023/09/14 12:42:03;;;;;;;2.58;0.70;;;22.50;91.70;;;;;;5053020;28;20441;-66
2023/09/14 12:44:30;;;;;;;2.05;0.57;;;21.90;90.80;;;;;;5035220;28;20053;-66
2023/09/14 12:46:56;;;;;;;2.33;0.82;;;21.40;91.10;;;;;;5034493;28;20045;-67
2023/09/14 12:49:23;;;;;;;2.67;0.52;;;21.20;90.70;;;;;;5034633;28;20041;-66
2023/09/14 12:51:50;;;;;;;1.48;0.60;;;21.20;91.30;;;;;;5052520;28;20068;-67
2023/09/14 12:54:22;;;;;;;1.52;0.73;;;21.30;90.50;;;;;;5033923;28;20555;-67
2023/09/14 12:56:49;;;;;;;1.05;0.40;;;21.30;90.50;;;;;;5034960;28;20053;-65